PWSweather.com
Personal Weather Stations
Station Observations
COONRAPIDS
Minneapolis, MN 55433

Minneapolis, MN 55433

Lat: 45.187721, Lon: -93.36828

Elevation: 898

Station Type: Davis Vantage Pro 2

High Low Average
Temperature 4.5°F-15.3°C -12.6°F-24.8°C -1.6°F-18.7°C
Dew Point -0.4°F-18.0°C -18.6°F-28.1°C -10.6°F-23.7°C
Winds 4.6 mph 7.4 kmh Calm Calm 1.0 mph SE1.6 kmh SE
Wind Gusts 9.2 mph14.8 kmh -- 2.0 mph3.2 kmh
Humidity 80% 49% 66%
Pressure 30.24 in1024.0 mb 29.75 in1007.5 mb -
Precipitation 0.00 in0.0 mm - -
Hour Temp Dew Point Humidity Winds Wind Gusts Pressure Precip Precip Rate Daily Precip Total
12:00 AM -1.2°F-18.4°C -9.8°F-23.2°C 66% Calm Calm 2.3 mph3.7 kmh 30.20 in1022.7 mb - 0.00 in0.0 mm 0.00 in0.0 mm
12:10 AM -1.6°F-18.7°C -10.2°F-23.4°C 66% Calm Calm -- 30.20 in1022.7 mb - 0.00 in0.0 mm 0.00 in0.0 mm
12:20 AM -1.9°F-18.8°C -10.5°F-23.6°C 66% Calm Calm -- 30.20 in1022.7 mb - 0.00 in0.0 mm 0.00 in0.0 mm
12:30 AM -2.2°F-19.0°C -11.1°F-23.9°C 65% Calm Calm -- 30.20 in1022.7 mb - 0.00 in0.0 mm 0.00 in0.0 mm
12:40 AM -2.5°F-19.2°C -11.4°F-24.1°C 65% Calm Calm 3.5 mph5.6 kmh 30.21 in1023.0 mb - 0.00 in0.0 mm 0.00 in0.0 mm
12:50 AM -2.6°F-19.2°C -11.8°F-24.3°C 64% Calm Calm 2.3 mph3.7 kmh 30.21 in1023.0 mb - 0.00 in0.0 mm 0.00 in0.0 mm
01:00 AM -2.6°F-19.2°C -11.8°F-24.3°C 64% 1.2 mph NNW1.9 kmh NNW 1.2 mph1.9 kmh 30.22 in1023.4 mb - 0.00 in0.0 mm 0.00 in0.0 mm
01:10 AM -2.7°F-19.3°C -12.2°F-24.6°C 63% 1.2 mph N1.9 kmh N 3.5 mph5.6 kmh 30.21 in1023.0 mb - 0.00 in0.0 mm 0.00 in0.0 mm
01:20 AM -2.9°F-19.4°C -12.4°F-24.7°C 63% Calm Calm 2.3 mph3.7 kmh 30.22 in1023.4 mb - 0.00 in0.0 mm 0.00 in0.0 mm
01:30 AM -3.1°F-19.5°C -12.6°F-24.8°C 63% 1.2 mph N1.9 kmh N 2.3 mph3.7 kmh 30.22 in1023.4 mb - 0.00 in0.0 mm 0.00 in0.0 mm
01:40 AM -3.3°F-19.6°C -12.8°F-24.9°C 63% 1.2 mph N1.9 kmh N 2.3 mph3.7 kmh 30.21 in1023.0 mb - 0.00 in0.0 mm 0.00 in0.0 mm
01:50 AM -3.4°F-19.7°C -13.2°F-25.1°C 62% 1.2 mph N1.9 kmh N 3.5 mph5.6 kmh 30.21 in1023.0 mb - 0.00 in0.0 mm 0.00 in0.0 mm
02:00 AM -3.5°F-19.7°C -13.6°F-25.3°C 61% Calm Calm -- 30.21 in1023.0 mb - 0.00 in0.0 mm 0.00 in0.0 mm
02:10 AM -3.7°F-19.8°C -13.8°F-25.4°C 61% Calm Calm 3.5 mph5.6 kmh 30.21 in1023.0 mb - 0.00 in0.0 mm 0.00 in0.0 mm
02:20 AM -3.9°F-19.9°C -14.0°F-25.6°C 61% Calm Calm -- 30.21 in1023.0 mb - 0.00 in0.0 mm 0.00 in0.0 mm
02:30 AM -4.2°F-20.1°C -14.3°F-25.7°C 61% Calm Calm -- 30.21 in1023.0 mb - 0.00 in0.0 mm 0.00 in0.0 mm
02:40 AM -4.6°F-20.3°C -14.3°F-25.7°C 62% Calm Calm -- 30.21 in1023.0 mb - 0.00 in0.0 mm 0.00 in0.0 mm
02:50 AM -5.2°F-20.7°C -14.6°F-25.9°C 63% Calm Calm -- 30.21 in1023.0 mb - 0.00 in0.0 mm 0.00 in0.0 mm
03:00 AM -5.5°F-20.8°C -14.5°F-25.8°C 64% Calm Calm 2.3 mph3.7 kmh 30.22 in1023.4 mb - 0.00 in0.0 mm 0.00 in0.0 mm
03:10 AM -5.5°F-20.8°C -14.6°F-25.9°C 64% Calm Calm 1.2 mph1.9 kmh 30.22 in1023.4 mb - 0.00 in0.0 mm 0.00 in0.0 mm
03:20 AM -5.8°F-21.0°C -14.8°F-26.0°C 64% Calm Calm -- 30.22 in1023.4 mb - 0.00 in0.0 mm 0.00 in0.0 mm
03:30 AM -6.2°F-21.2°C -14.9°F-26.1°C 65% Calm Calm -- 30.22 in1023.4 mb - 0.00 in0.0 mm 0.00 in0.0 mm
03:40 AM -6.5°F-21.4°C -15.2°F-26.2°C 65% Calm Calm -- 30.23 in1023.7 mb - 0.00 in0.0 mm 0.00 in0.0 mm
03:50 AM -6.9°F-21.6°C -15.3°F-26.3°C 66% Calm Calm -- 30.23 in1023.7 mb - 0.00 in0.0 mm 0.00 in0.0 mm
04:00 AM -7.3°F-21.8°C -15.4°F-26.3°C 67% Calm Calm -- 30.23 in1023.7 mb - 0.00 in0.0 mm 0.00 in0.0 mm
04:10 AM -7.8°F-22.1°C -15.9°F-26.6°C 67% Calm Calm -- 30.23 in1023.7 mb - 0.00 in0.0 mm 0.00 in0.0 mm
04:20 AM -8.1°F-22.3°C -15.8°F-26.6°C 68% Calm Calm -- 30.23 in1023.7 mb - 0.00 in0.0 mm 0.00 in0.0 mm
04:30 AM -8.2°F-22.3°C -15.7°F-26.5°C 69% Calm Calm -- 30.23 in1023.7 mb - 0.00 in0.0 mm 0.00 in0.0 mm
04:40 AM -8.2°F-22.3°C -15.4°F-26.3°C 70% Calm Calm -- 30.23 in1023.7 mb - 0.00 in0.0 mm 0.00 in0.0 mm
04:50 AM -8.1°F-22.3°C -15.3°F-26.3°C 70% Calm Calm -- 30.23 in1023.7 mb - 0.00 in0.0 mm 0.00 in0.0 mm
05:00 AM -8.1°F-22.3°C -15.3°F-26.3°C 70% Calm Calm 1.2 mph1.9 kmh 30.23 in1023.7 mb - 0.00 in0.0 mm 0.00 in0.0 mm
05:10 AM -8.2°F-22.3°C -15.1°F-26.2°C 71% Calm Calm -- 30.23 in1023.7 mb - 0.00 in0.0 mm 0.00 in0.0 mm
05:20 AM -8.3°F-22.4°C -15.1°F-26.2°C 71% Calm Calm -- 30.23 in1023.7 mb - 0.00 in0.0 mm 0.00 in0.0 mm
05:30 AM -8.5°F-22.5°C -15.4°F-26.3°C 71% Calm Calm -- 30.23 in1023.7 mb - 0.00 in0.0 mm 0.00 in0.0 mm
05:40 AM -8.8°F-22.7°C -15.4°F-26.3°C 72% Calm Calm -- 30.24 in1024.0 mb - 0.00 in0.0 mm 0.00 in0.0 mm
05:50 AM -8.8°F-22.7°C -15.4°F-26.3°C 72% Calm Calm -- 30.23 in1023.7 mb - 0.00 in0.0 mm 0.00 in0.0 mm
06:00 AM -9.0°F-22.8°C -15.6°F-26.4°C 72% Calm Calm -- 30.24 in1024.0 mb - 0.00 in0.0 mm 0.00 in0.0 mm
06:10 AM -9.3°F-22.9°C -15.9°F-26.6°C 72% Calm Calm -- 30.24 in1024.0 mb - 0.00 in0.0 mm 0.00 in0.0 mm
06:20 AM -9.5°F-23.1°C -16.1°F-26.7°C 72% Calm Calm -- 30.24 in1024.0 mb - 0.00 in0.0 mm 0.00 in0.0 mm
06:30 AM -10.0°F-23.3°C -16.3°F-26.8°C 73% Calm Calm -- 30.23 in1023.7 mb - 0.00 in0.0 mm 0.00 in0.0 mm
06:40 AM -10.3°F-23.5°C -16.6°F-27.0°C 73% Calm Calm -- 30.23 in1023.7 mb - 0.00 in0.0 mm 0.00 in0.0 mm
06:50 AM -10.6°F-23.7°C -16.9°F-27.2°C 73% Calm Calm -- 30.23 in1023.7 mb - 0.00 in0.0 mm 0.00 in0.0 mm
07:00 AM -10.6°F-23.7°C -16.6°F-27.0°C 74% Calm Calm -- 30.22 in1023.4 mb - 0.00 in0.0 mm 0.00 in0.0 mm
07:10 AM -10.8°F-23.8°C -16.8°F-27.1°C 74% Calm Calm -- 30.22 in1023.4 mb - 0.00 in0.0 mm 0.00 in0.0 mm
07:20 AM -11.1°F-23.9°C -17.1°F-27.3°C 74% Calm Calm -- 30.23 in1023.7 mb - 0.00 in0.0 mm 0.00 in0.0 mm
07:30 AM -11.4°F-24.1°C -17.4°F-27.4°C 74% Calm Calm -- 30.22 in1023.4 mb - 0.00 in0.0 mm 0.00 in0.0 mm
07:40 AM -11.6°F-24.2°C -17.6°F-27.6°C 74% Calm Calm -- 30.22 in1023.4 mb - 0.00 in0.0 mm 0.00 in0.0 mm
07:50 AM -11.9°F-24.4°C -17.9°F-27.7°C 74% Calm Calm -- 30.22 in1023.4 mb - 0.00 in0.0 mm 0.00 in0.0 mm
08:00 AM -12.1°F-24.5°C -18.1°F-27.8°C 74% Calm Calm -- 30.22 in1023.4 mb - 0.00 in0.0 mm 0.00 in0.0 mm
08:10 AM -12.2°F-24.6°C -18.2°F-27.9°C 74% Calm Calm -- 30.22 in1023.4 mb - 0.00 in0.0 mm 0.00 in0.0 mm
08:20 AM -12.4°F-24.7°C -18.3°F-27.9°C 74% Calm Calm -- 30.22 in1023.4 mb - 0.00 in0.0 mm 0.00 in0.0 mm
08:30 AM -12.5°F-24.7°C -18.4°F-28.0°C 74% Calm Calm -- 30.22 in1023.4 mb - 0.00 in0.0 mm 0.00 in0.0 mm
08:40 AM -12.6°F-24.8°C -18.5°F-28.1°C 74% Calm Calm -- 30.21 in1023.0 mb - 0.00 in0.0 mm 0.00 in0.0 mm
08:50 AM -12.6°F-24.8°C -18.6°F-28.1°C 74% Calm Calm -- 30.21 in1023.0 mb - 0.00 in0.0 mm 0.00 in0.0 mm
09:00 AM -12.6°F-24.8°C -18.3°F-27.9°C 75% Calm Calm -- 30.21 in1023.0 mb - 0.00 in0.0 mm 0.00 in0.0 mm
09:10 AM -12.4°F-24.7°C -18.1°F-27.8°C 75% Calm Calm -- 30.22 in1023.4 mb - 0.00 in0.0 mm 0.00 in0.0 mm
09:20 AM -12.0°F-24.4°C -17.7°F-27.6°C 75% Calm Calm -- 30.22 in1023.4 mb - 0.00 in0.0 mm 0.00 in0.0 mm
09:30 AM -11.0°F-23.9°C -16.4°F-26.9°C 76% Calm Calm -- 30.22 in1023.4 mb - 0.00 in0.0 mm 0.00 in0.0 mm
09:40 AM -9.7°F-23.2°C -15.2°F-26.2°C 76% Calm Calm -- 30.22 in1023.4 mb - 0.00 in0.0 mm 0.00 in0.0 mm
09:50 AM -8.4°F-22.4°C -13.9°F-25.5°C 76% Calm Calm -- 30.21 in1023.0 mb - 0.00 in0.0 mm 0.00 in0.0 mm
10:00 AM -7.3°F-21.8°C -13.7°F-25.4°C 73% Calm Calm -- 30.21 in1023.0 mb - 0.00 in0.0 mm 0.00 in0.0 mm
10:10 AM -6.9°F-21.6°C -14.1°F-25.6°C 70% Calm Calm -- 30.21 in1023.0 mb - 0.00 in0.0 mm 0.00 in0.0 mm
10:20 AM -7.3°F-21.8°C -15.1°F-26.2°C 68% Calm Calm -- 30.20 in1022.7 mb - 0.00 in0.0 mm 0.00 in0.0 mm
10:30 AM -6.3°F-21.3°C -13.8°F-25.4°C 69% Calm Calm 2.3 mph3.7 kmh 30.20 in1022.7 mb - 0.00 in0.0 mm 0.00 in0.0 mm
10:40 AM -6.0°F-21.1°C -14.4°F-25.8°C 66% Calm Calm -- 30.20 in1022.7 mb - 0.00 in0.0 mm 0.00 in0.0 mm
10:50 AM -5.9°F-21.1°C -14.6°F-25.9°C 65% Calm Calm -- 30.20 in1022.7 mb - 0.00 in0.0 mm 0.00 in0.0 mm
11:00 AM -5.0°F-20.6°C -13.8°F-25.4°C 65% Calm Calm -- 30.20 in1022.7 mb - 0.00 in0.0 mm 0.00 in0.0 mm
11:10 AM -3.7°F-19.8°C -13.2°F-25.1°C 63% Calm Calm -- 30.20 in1022.7 mb - 0.00 in0.0 mm 0.00 in0.0 mm
11:20 AM -3.3°F-19.6°C -13.7°F-25.4°C 60% Calm Calm -- 30.20 in1022.7 mb - 0.00 in0.0 mm 0.00 in0.0 mm
11:30 AM -3.4°F-19.7°C -14.2°F-25.7°C 59% Calm Calm -- 30.20 in1022.7 mb - 0.00 in0.0 mm 0.00 in0.0 mm
11:40 AM -2.6°F-19.2°C -13.4°F-25.2°C 59% Calm Calm -- 30.20 in1022.7 mb - 0.00 in0.0 mm 0.00 in0.0 mm
11:50 AM -2.1°F-18.9°C -13.6°F-25.3°C 57% Calm Calm -- 30.19 in1022.4 mb - 0.00 in0.0 mm 0.00 in0.0 mm
12:00 PM -1.6°F-18.7°C -13.2°F-25.1°C 57% Calm Calm -- 30.19 in1022.4 mb - 0.00 in0.0 mm 0.00 in0.0 mm
12:10 PM -1.0°F-18.3°C -12.9°F-24.9°C 56% Calm Calm -- 30.18 in1022.0 mb - 0.00 in0.0 mm 0.00 in0.0 mm
12:20 PM -0.7°F-18.2°C -12.3°F-24.6°C 57% Calm Calm -- 30.17 in1021.7 mb - 0.00 in0.0 mm 0.00 in0.0 mm
12:30 PM 0.2°F-17.7°C -11.8°F-24.3°C 56% Calm Calm -- 30.16 in1021.3 mb - 0.00 in0.0 mm 0.00 in0.0 mm
12:40 PM 0.6°F-17.4°C -11.8°F-24.3°C 55% Calm Calm -- 30.15 in1021.0 mb - 0.00 in0.0 mm 0.00 in0.0 mm
12:50 PM 0.9°F-17.3°C -11.9°F-24.4°C 54% Calm Calm -- 30.14 in1020.7 mb - 0.00 in0.0 mm 0.00 in0.0 mm
01:00 PM 1.4°F-17.0°C -11.4°F-24.1°C 54% 1.2 mph SE1.9 kmh SE 3.5 mph5.6 kmh 30.12 in1020.0 mb - 0.00 in0.0 mm 0.00 in0.0 mm
01:10 PM 1.7°F-16.8°C -11.1°F-23.9°C 54% Calm Calm 2.3 mph3.7 kmh 30.12 in1020.0 mb - 0.00 in0.0 mm 0.00 in0.0 mm
01:20 PM 2.5°F-16.4°C -10.3°F-23.5°C 54% Calm Calm -- 30.11 in1019.6 mb - 0.00 in0.0 mm 0.00 in0.0 mm
01:30 PM 2.6°F-16.3°C -10.7°F-23.7°C 53% Calm Calm -- 30.11 in1019.6 mb - 0.00 in0.0 mm 0.00 in0.0 mm
01:40 PM 2.3°F-16.5°C -11.0°F-23.9°C 53% Calm Calm 1.2 mph1.9 kmh 30.11 in1019.6 mb - 0.00 in0.0 mm 0.00 in0.0 mm
01:50 PM 2.7°F-16.3°C -10.2°F-23.4°C 54% Calm Calm 3.5 mph5.6 kmh 30.11 in1019.6 mb - 0.00 in0.0 mm 0.00 in0.0 mm
02:00 PM 3.0°F-16.1°C -9.9°F-23.3°C 54% Calm Calm -- 30.09 in1019.0 mb - 0.00 in0.0 mm 0.00 in0.0 mm
02:10 PM 3.3°F-15.9°C -9.6°F-23.1°C 54% 1.2 mph SE1.9 kmh SE 2.3 mph3.7 kmh 30.08 in1018.6 mb - 0.00 in0.0 mm 0.00 in0.0 mm
02:20 PM 3.7°F-15.7°C -9.3°F-22.9°C 54% Calm Calm -- 30.09 in1019.0 mb - 0.00 in0.0 mm 0.00 in0.0 mm
02:30 PM 3.7°F-15.7°C -9.3°F-22.9°C 54% Calm Calm -- 30.08 in1018.6 mb - 0.00 in0.0 mm 0.00 in0.0 mm
02:40 PM 4.1°F-15.5°C -8.5°F-22.5°C 55% Calm Calm 3.5 mph5.6 kmh 30.07 in1018.3 mb - 0.00 in0.0 mm 0.00 in0.0 mm
02:50 PM 4.0°F-15.6°C -9.4°F-23.0°C 53% Calm Calm -- 30.07 in1018.3 mb - 0.00 in0.0 mm 0.00 in0.0 mm
03:00 PM 3.8°F-15.7°C -9.6°F-23.1°C 53% 2.3 mph SE3.7 kmh SE 4.6 mph7.4 kmh 30.05 in1017.6 mb - 0.00 in0.0 mm 0.00 in0.0 mm
03:10 PM 3.6°F-15.8°C -9.7°F-23.2°C 53% Calm Calm 2.3 mph3.7 kmh 30.04 in1017.3 mb - 0.00 in0.0 mm 0.00 in0.0 mm
03:20 PM 3.8°F-15.7°C -9.9°F-23.3°C 52% Calm Calm 3.5 mph5.6 kmh 30.01 in1016.3 mb - 0.00 in0.0 mm 0.00 in0.0 mm
03:30 PM 3.9°F-15.6°C -9.5°F-23.1°C 53% 3.5 mph SE5.6 kmh SE 6.9 mph11.1 kmh 29.98 in1015.2 mb - 0.00 in0.0 mm 0.00 in0.0 mm
03:40 PM 4.0°F-15.6°C -9.8°F-23.2°C 52% 2.3 mph SSE3.7 kmh SSE 3.5 mph5.6 kmh 29.97 in1014.9 mb - 0.00 in0.0 mm 0.00 in0.0 mm
03:50 PM 4.3°F-15.4°C -9.9°F-23.3°C 51% 1.2 mph SE1.9 kmh SE 3.5 mph5.6 kmh 29.99 in1015.6 mb - 0.00 in0.0 mm 0.00 in0.0 mm
04:00 PM 4.0°F-15.6°C -10.5°F-23.6°C 50% 1.2 mph SE1.9 kmh SE 3.5 mph5.6 kmh 29.99 in1015.6 mb - 0.00 in0.0 mm 0.00 in0.0 mm
04:10 PM 4.2°F-15.4°C -10.0°F-23.3°C 51% 1.2 mph SE1.9 kmh SE 3.5 mph5.6 kmh 29.99 in1015.6 mb - 0.00 in0.0 mm 0.00 in0.0 mm
04:20 PM 4.2°F-15.4°C -10.0°F-23.3°C 51% Calm Calm 2.3 mph3.7 kmh 30.00 in1015.9 mb - 0.00 in0.0 mm 0.00 in0.0 mm
04:30 PM 4.3°F-15.4°C -10.3°F-23.5°C 50% 2.3 mph SE3.7 kmh SE 5.8 mph9.3 kmh 29.98 in1015.2 mb - 0.00 in0.0 mm 0.00 in0.0 mm
04:40 PM 4.4°F-15.3°C -9.8°F-23.2°C 51% 1.2 mph SSE1.9 kmh SSE 3.5 mph5.6 kmh 29.98 in1015.2 mb - 0.00 in0.0 mm 0.00 in0.0 mm
04:50 PM 4.2°F-15.4°C -10.4°F-23.6°C 50% Calm Calm 1.2 mph1.9 kmh 29.96 in1014.6 mb - 0.00 in0.0 mm 0.00 in0.0 mm
05:00 PM 4.2°F-15.4°C -10.4°F-23.6°C 50% 1.2 mph SE1.9 kmh SE 2.3 mph3.7 kmh 29.96 in1014.6 mb - 0.00 in0.0 mm 0.00 in0.0 mm
05:10 PM 4.2°F-15.4°C -10.8°F-23.8°C 49% 2.3 mph SSE3.7 kmh SSE 4.6 mph7.4 kmh 29.95 in1014.2 mb - 0.00 in0.0 mm 0.00 in0.0 mm
05:20 PM 4.3°F-15.4°C -9.9°F-23.3°C 51% 1.2 mph ESE1.9 kmh ESE 1.2 mph1.9 kmh 29.94 in1013.9 mb - 0.00 in0.0 mm 0.00 in0.0 mm
05:30 PM 4.3°F-15.4°C -10.3°F-23.5°C 50% 1.2 mph SSE1.9 kmh SSE -- 29.93 in1013.5 mb - 0.00 in0.0 mm 0.00 in0.0 mm
05:40 PM 4.5°F-15.3°C -9.7°F-23.2°C 51% 1.2 mph ESE1.9 kmh ESE 4.6 mph7.4 kmh 29.92 in1013.2 mb - 0.00 in0.0 mm 0.00 in0.0 mm
05:50 PM 4.3°F-15.4°C -9.4°F-23.0°C 52% Calm Calm 3.5 mph5.6 kmh 29.91 in1012.9 mb - 0.00 in0.0 mm 0.00 in0.0 mm
06:00 PM 4.3°F-15.4°C -9.5°F-23.1°C 52% 1.2 mph SE1.9 kmh SE 3.5 mph5.6 kmh 29.91 in1012.9 mb - 0.00 in0.0 mm 0.00 in0.0 mm
06:10 PM 4.4°F-15.3°C -9.8°F-23.2°C 51% 1.2 mph ESE1.9 kmh ESE 4.6 mph7.4 kmh 29.90 in1012.5 mb - 0.00 in0.0 mm 0.00 in0.0 mm
06:20 PM 4.3°F-15.4°C -10.3°F-23.5°C 50% 1.2 mph ESE1.9 kmh ESE 8.1 mph13.0 kmh 29.89 in1012.2 mb - 0.00 in0.0 mm 0.00 in0.0 mm
06:30 PM 4.3°F-15.4°C -10.3°F-23.5°C 50% Calm Calm 3.5 mph5.6 kmh 29.89 in1012.2 mb - 0.00 in0.0 mm 0.00 in0.0 mm
06:40 PM 4.4°F-15.3°C -9.8°F-23.2°C 51% 4.6 mph ESE7.4 kmh ESE 9.2 mph14.8 kmh 29.88 in1011.9 mb - 0.00 in0.0 mm 0.00 in0.0 mm
06:50 PM 4.5°F-15.3°C -9.3°F-22.9°C 52% 3.5 mph SE5.6 kmh SE 5.8 mph9.3 kmh 29.88 in1011.9 mb - 0.00 in0.0 mm 0.00 in0.0 mm
07:00 PM 4.4°F-15.3°C -8.9°F-22.7°C 53% 2.3 mph SE3.7 kmh SE 3.5 mph5.6 kmh 29.87 in1011.5 mb - 0.00 in0.0 mm 0.00 in0.0 mm
07:10 PM 4.2°F-15.4°C -7.7°F-22.1°C 57% Calm Calm 2.3 mph3.7 kmh 29.87 in1011.5 mb - 0.00 in0.0 mm 0.00 in0.0 mm
07:20 PM 3.8°F-15.7°C -6.0°F-21.1°C 63% 2.3 mph ESE3.7 kmh ESE 4.6 mph7.4 kmh 29.86 in1011.2 mb - 0.00 in0.0 mm 0.00 in0.0 mm
07:30 PM 3.4°F-15.9°C -4.8°F-20.4°C 68% 1.2 mph ESE1.9 kmh ESE 3.5 mph5.6 kmh 29.86 in1011.2 mb - 0.00 in0.0 mm 0.00 in0.0 mm
07:40 PM 3.2°F-16.0°C -4.1°F-20.1°C 71% 2.3 mph E3.7 kmh E 9.2 mph14.8 kmh 29.86 in1011.2 mb - 0.00 in0.0 mm 0.00 in0.0 mm
07:50 PM 3.2°F-16.0°C -3.2°F-19.6°C 74% 3.5 mph ESE5.6 kmh ESE 5.8 mph9.3 kmh 29.85 in1010.8 mb - 0.00 in0.0 mm 0.00 in0.0 mm
08:00 PM 3.3°F-15.9°C -2.8°F-19.3°C 75% 3.5 mph ESE5.6 kmh ESE 4.6 mph7.4 kmh 29.84 in1010.5 mb - 0.00 in0.0 mm 0.00 in0.0 mm
08:10 PM 3.3°F-15.9°C -2.6°F-19.2°C 76% 1.2 mph SE1.9 kmh SE 6.9 mph11.1 kmh 29.84 in1010.5 mb - 0.00 in0.0 mm 0.00 in0.0 mm
08:20 PM 3.3°F-15.9°C -2.6°F-19.2°C 76% 2.3 mph ESE3.7 kmh ESE 5.8 mph9.3 kmh 29.83 in1010.2 mb - 0.00 in0.0 mm 0.00 in0.0 mm
08:30 PM 3.3°F-15.9°C -2.3°F-19.1°C 77% 1.2 mph E1.9 kmh E 3.5 mph5.6 kmh 29.83 in1010.2 mb - 0.00 in0.0 mm 0.00 in0.0 mm
08:40 PM 3.4°F-15.9°C -2.2°F-19.0°C 77% 1.2 mph ESE1.9 kmh ESE 2.3 mph3.7 kmh 29.82 in1009.8 mb - 0.00 in0.0 mm 0.00 in0.0 mm
08:50 PM 3.5°F-15.8°C -2.1°F-18.9°C 77% 1.2 mph E1.9 kmh E 2.3 mph3.7 kmh 29.82 in1009.8 mb - 0.00 in0.0 mm 0.00 in0.0 mm
09:00 PM 3.5°F-15.8°C -1.8°F-18.8°C 78% 1.2 mph ESE1.9 kmh ESE 3.5 mph5.6 kmh 29.81 in1009.5 mb - 0.00 in0.0 mm 0.00 in0.0 mm
09:10 PM 3.6°F-15.8°C -1.7°F-18.7°C 78% 1.2 mph E1.9 kmh E 2.3 mph3.7 kmh 29.80 in1009.1 mb - 0.00 in0.0 mm 0.00 in0.0 mm
09:20 PM 3.7°F-15.7°C -1.6°F-18.7°C 78% 3.5 mph E5.6 kmh E 4.6 mph7.4 kmh 29.80 in1009.1 mb - 0.00 in0.0 mm 0.00 in0.0 mm
09:30 PM 3.8°F-15.7°C -1.5°F-18.6°C 78% 3.5 mph E5.6 kmh E 6.9 mph11.1 kmh 29.80 in1009.1 mb - 0.00 in0.0 mm 0.00 in0.0 mm
09:40 PM 3.7°F-15.7°C -1.6°F-18.7°C 78% 2.3 mph E3.7 kmh E 4.6 mph7.4 kmh 29.80 in1009.1 mb - 0.00 in0.0 mm 0.00 in0.0 mm
09:50 PM 3.7°F-15.7°C -1.6°F-18.7°C 78% 1.2 mph E1.9 kmh E 4.6 mph7.4 kmh 29.80 in1009.1 mb - 0.00 in0.0 mm 0.00 in0.0 mm
10:00 PM 3.7°F-15.7°C -1.6°F-18.7°C 78% 2.3 mph E3.7 kmh E 6.9 mph11.1 kmh 29.79 in1008.8 mb - 0.00 in0.0 mm 0.00 in0.0 mm
10:10 PM 3.7°F-15.7°C -1.4°F-18.6°C 79% 2.3 mph E3.7 kmh E 6.9 mph11.1 kmh 29.78 in1008.5 mb - 0.00 in0.0 mm 0.00 in0.0 mm
10:20 PM 3.7°F-15.7°C -1.4°F-18.6°C 79% 2.3 mph E3.7 kmh E 3.5 mph5.6 kmh 29.78 in1008.5 mb - 0.00 in0.0 mm 0.00 in0.0 mm
10:30 PM 3.7°F-15.7°C -1.4°F-18.6°C 79% 1.2 mph E1.9 kmh E 3.5 mph5.6 kmh 29.77 in1008.1 mb - 0.00 in0.0 mm 0.00 in0.0 mm
10:40 PM 3.8°F-15.7°C -1.3°F-18.5°C 79% 2.3 mph E3.7 kmh E 3.5 mph5.6 kmh 29.77 in1008.1 mb - 0.00 in0.0 mm 0.00 in0.0 mm
10:50 PM 3.8°F-15.7°C -1.3°F-18.5°C 79% 1.2 mph E1.9 kmh E 3.5 mph5.6 kmh 29.76 in1007.8 mb - 0.00 in0.0 mm 0.00 in0.0 mm
11:00 PM 3.8°F-15.7°C -1.3°F-18.5°C 79% 1.2 mph E1.9 kmh E 2.3 mph3.7 kmh 29.76 in1007.8 mb - 0.00 in0.0 mm 0.00 in0.0 mm
11:10 PM 3.8°F-15.7°C -1.3°F-18.5°C 79% 1.2 mph E1.9 kmh E 2.3 mph3.7 kmh 29.76 in1007.8 mb - 0.00 in0.0 mm 0.00 in0.0 mm
11:20 PM 3.8°F-15.7°C -1.3°F-18.5°C 79% 1.2 mph E1.9 kmh E 3.5 mph5.6 kmh 29.76 in1007.8 mb - 0.00 in0.0 mm 0.00 in0.0 mm
11:30 PM 3.9°F-15.6°C -1.2°F-18.4°C 79% 2.3 mph E3.7 kmh E 6.9 mph11.1 kmh 29.75 in1007.5 mb - 0.00 in0.0 mm 0.00 in0.0 mm
11:40 PM 4.0°F-15.6°C -1.1°F-18.4°C 79% 3.5 mph ESE5.6 kmh ESE 4.6 mph7.4 kmh 29.76 in1007.8 mb - 0.00 in0.0 mm 0.00 in0.0 mm
11:50 PM 4.1°F-15.5°C -1.0°F-18.3°C 79% 3.5 mph E5.6 kmh E 3.5 mph5.6 kmh 29.75 in1007.5 mb - 0.00 in0.0 mm 0.00 in0.0 mm